Johnstown, PA (15901)

07:43 PM EDT del 25 Marzo 2017 (GMT -0400)
The Treetops at Stackhouse | | Change Station

Alt. 1663 ft 40.32 °N, 78.93 °W | Updated 1 minute ago

Molto nuvoloso
Molto nuvoloso
65.9 °F
Sembra 65.9 °F
N
1.0
Vento Variabile Vento da ESE

Oggi
Massima -- | Minima -- °F
--% Possibilità di precip.
Ieri
Massima -- | Minima -- °F
Precip. -- in
Pressione 30.16 in
Visibilità 10.0 miglia
Nuvole Sereno
Punto di rugiada 51 °F
Umidità 59%
Piovosità 0.00 in
Spessore del manto nevoso Non disponibile.
7:10 AM 7:33 PM
Luna calante, 6% visible
METAR KJST 252254Z AUTO 00000KT 10SM CLR 19/09 A3018 RMK AO2 SLP212 T01890094
Pressione 30.16 in
Visibilità 10.0 miglia
Nuvole Sereno
Punto di rugiada 51 °F
Umidità 59%
Piovosità 0.00 in
Spessore del manto nevoso Non disponibile.
7:10 AM 7:33 PM
Luna calante, 6% visible
METAR KJST 252254Z AUTO 00000KT 10SM CLR 19/09 A3018 RMK AO2 SLP212 T01890094

Get Severe Weather Alerts

Thanks for signing up!

Be on the lookout for a verification email in your inbox.

You'll start receiving the daily forecast at 8 AM.

×

10-Day Weather Forecast

Almanac

Astronomia

Mar. 25, 2017 Alba Tramonto
Ora attuale
Crepuscolo civile
Crepuscolo nautico
Crepuscolo astronomico
Luna
Estensione della luce visibile
Lunghezza del giorno
Tomorrow will be .
, % of the Moon is Illuminated

Gli estremi di oggi

State Highs State Lows

Community

WunderPhotos

Upload Photos

1,962,540 foto caricate!

WunderBlog® & News

Nearby

Qualità dell'aria

  Qualità dell'aria Indice AQ Inquinante
Not available.

Profondità neve

Stazione Profondità Altitudine

Attività sismica

Città  Distanza Mag. Data & Ora
Minimo Magnitudo Mostrato è 2.5.

Attività sismica

Città  Distanza Mag. Data & Ora
Minimo Magnitudo Mostrato è 2.5.

Temperature delle acque costiere

Località Temperatura

Stations

Stazioni meteo nelle vicinanze

Ubicazione della stazione Temp. Raffreddamento del vento Punto di rugiada Umidità Vento Precip. Alt. Aggiornato Tipo
                   

Watches & Warnings

There are currently no watches in effect.